createdAt,value
2018-03-06T00:00:18.860Z,969.60
2018-03-06T00:01:19.036Z,969.60
2018-03-06T00:02:19.212Z,969.59
2018-03-06T00:03:19.382Z,969.62
2018-03-06T00:04:19.546Z,969.63
2018-03-06T00:05:19.724Z,969.57
2018-03-06T00:06:19.900Z,969.59
2018-03-06T00:07:20.061Z,969.63
2018-03-06T00:08:20.298Z,969.60
2018-03-06T00:09:20.428Z,969.62
2018-03-06T00:10:20.589Z,969.64
2018-03-06T00:11:20.763Z,969.62
2018-03-06T00:12:20.931Z,969.59
2018-03-06T00:13:21.155Z,969.58
2018-03-06T00:14:21.304Z,969.64
2018-03-06T00:15:21.463Z,969.66
2018-03-06T00:16:21.632Z,969.64
2018-03-06T00:17:21.807Z,969.66
2018-03-06T00:18:21.989Z,969.65
2018-03-06T00:19:22.156Z,969.64
2018-03-06T00:20:22.353Z,969.63
2018-03-06T00:21:22.509Z,969.66
2018-03-06T00:22:22.682Z,969.61
2018-03-06T00:23:22.853Z,969.62
2018-03-06T00:24:23.050Z,969.64
2018-03-06T00:25:23.196Z,969.67
2018-03-06T00:26:23.416Z,969.66
2018-03-06T00:27:23.542Z,969.62
2018-03-06T00:28:23.713Z,969.66
2018-03-06T00:29:23.883Z,969.62
2018-03-06T00:30:24.065Z,969.61
2018-03-06T00:31:24.247Z,969.62
2018-03-06T00:32:24.439Z,969.63
2018-03-06T00:33:24.596Z,969.65
2018-03-06T00:34:24.757Z,969.61
2018-03-06T00:35:24.940Z,969.64
2018-03-06T00:36:25.118Z,969.66
2018-03-06T00:37:25.281Z,969.63
2018-03-06T00:38:25.482Z,969.65
2018-03-06T00:39:25.632Z,969.62
2018-03-06T00:40:25.808Z,969.60
2018-03-06T00:41:25.989Z,969.59
2018-03-06T00:42:26.162Z,969.58
2018-03-06T00:43:26.332Z,969.56
2018-03-06T00:44:26.509Z,969.58
2018-03-06T00:45:26.672Z,969.57
2018-03-06T00:46:26.847Z,969.49
2018-03-06T00:47:27.021Z,969.47
2018-03-06T00:48:27.191Z,969.50
2018-03-06T00:49:27.368Z,969.50
2018-03-06T00:50:27.591Z,969.48
2018-03-06T00:51:27.715Z,969.52
2018-03-06T00:52:27.893Z,969.51
2018-03-06T00:53:28.066Z,969.52
2018-03-06T00:54:28.233Z,969.53
2018-03-06T00:55:28.410Z,969.51
2018-03-06T00:56:28.582Z,969.45
2018-03-06T00:57:28.759Z,969.42
2018-03-06T00:58:28.937Z,969.36
2018-03-06T00:59:29.106Z,969.38
2018-03-06T01:00:29.274Z,969.35
2018-03-06T01:01:29.456Z,969.36
2018-03-06T01:02:29.627Z,969.39
2018-03-06T01:03:29.802Z,969.38
2018-03-06T01:04:29.972Z,969.33
2018-03-06T01:05:30.145Z,969.34
2018-03-06T01:06:30.308Z,969.35
2018-03-06T01:07:30.485Z,969.34
2018-03-06T01:08:30.655Z,969.29
2018-03-06T01:09:30.833Z,969.35
2018-03-06T01:10:31.002Z,969.32
2018-03-06T01:11:31.176Z,969.29
2018-03-06T01:12:31.350Z,969.28
2018-03-06T01:13:31.524Z,969.27
2018-03-06T01:14:31.713Z,969.27
2018-03-06T01:15:31.871Z,969.25
2018-03-06T01:16:32.047Z,969.26
2018-03-06T01:17:32.214Z,969.30
2018-03-06T01:18:32.388Z,969.24
2018-03-06T01:19:32.561Z,969.26
2018-03-06T01:20:32.737Z,969.30
2018-03-06T01:21:32.925Z,969.25
2018-03-06T01:22:33.080Z,969.28
2018-03-06T01:23:33.256Z,969.31
2018-03-06T01:24:33.435Z,969.27
2018-03-06T01:25:33.637Z,969.26
2018-03-06T01:26:33.776Z,969.23
2018-03-06T01:27:33.946Z,969.30
2018-03-06T01:28:34.125Z,969.22
2018-03-06T01:29:34.292Z,969.26
2018-03-06T01:30:34.468Z,969.23
2018-03-06T01:31:34.643Z,969.24
2018-03-06T01:32:34.815Z,969.23
2018-03-06T01:33:34.989Z,969.16
2018-03-06T01:34:35.172Z,969.18
2018-03-06T01:35:35.342Z,969.14
2018-03-06T01:36:35.514Z,969.16
2018-03-06T01:37:35.722Z,969.12
2018-03-06T01:38:36.104Z,969.15
2018-03-06T01:39:36.033Z,969.14
2018-03-06T01:40:36.206Z,969.11
2018-03-06T01:41:36.391Z,969.12
2018-03-06T01:42:36.568Z,969.11
2018-03-06T01:43:36.782Z,969.13
2018-03-06T01:44:36.916Z,969.05
2018-03-06T01:45:37.090Z,969.05
2018-03-06T01:46:37.269Z,969.03
2018-03-06T01:47:37.438Z,969.04
2018-03-06T01:48:37.616Z,969.06
2018-03-06T01:49:37.787Z,968.99
2018-03-06T01:50:37.963Z,969.03
2018-03-06T01:51:38.135Z,968.98
2018-03-06T01:52:38.304Z,968.98
2018-03-06T01:53:38.481Z,968.97
2018-03-06T01:54:38.660Z,968.95
2018-03-06T01:55:38.829Z,968.91
2018-03-06T01:56:39.002Z,968.96
2018-03-06T01:57:39.174Z,968.96
2018-03-06T01:58:39.360Z,968.95
2018-03-06T01:59:39.517Z,968.95
2018-03-06T02:00:39.697Z,968.94
2018-03-06T02:01:39.863Z,968.93
2018-03-06T02:02:40.045Z,968.94
2018-03-06T02:03:40.233Z,968.87
2018-03-06T02:04:40.407Z,968.87
2018-03-06T02:05:40.586Z,968.87
2018-03-06T02:06:40.754Z,968.89
2018-03-06T02:07:40.926Z,968.85
2018-03-06T02:08:41.114Z,968.86
2018-03-06T02:09:41.311Z,968.85
2018-03-06T02:10:41.454Z,968.86
2018-03-06T02:11:41.670Z,968.87
2018-03-06T02:12:41.809Z,968.86
2018-03-06T02:13:41.969Z,968.90
2018-03-06T02:14:42.173Z,968.88
2018-03-06T02:15:42.322Z,968.86
2018-03-06T02:16:42.497Z,968.90
2018-03-06T02:17:42.674Z,968.88
2018-03-06T02:18:42.852Z,968.81
2018-03-06T02:19:43.019Z,968.83
2018-03-06T02:20:43.192Z,968.77
2018-03-06T02:21:43.371Z,968.75
2018-03-06T02:22:43.545Z,968.81
2018-03-06T02:23:43.717Z,968.73
2018-03-06T02:24:43.897Z,968.74
2018-03-06T02:25:44.063Z,968.75
2018-03-06T02:26:44.240Z,968.78
2018-03-06T02:27:44.414Z,968.82
2018-03-06T02:28:44.588Z,968.81
2018-03-06T02:29:44.760Z,968.76
2018-03-06T02:30:44.930Z,968.76
2018-03-06T02:31:45.107Z,968.72
2018-03-06T02:32:45.279Z,968.73
2018-03-06T02:33:45.451Z,968.73
2018-03-06T02:34:45.626Z,968.68
2018-03-06T02:35:45.808Z,968.68
2018-03-06T02:36:45.972Z,968.67
2018-03-06T02:37:46.147Z,968.63
2018-03-06T02:38:46.315Z,968.63
2018-03-06T02:39:46.495Z,968.67
2018-03-06T02:40:46.671Z,968.63
2018-03-06T02:41:47.077Z,968.64
2018-03-06T02:42:47.011Z,968.67
2018-03-06T02:43:47.187Z,968.67
2018-03-06T02:44:47.370Z,968.68
2018-03-06T02:45:47.532Z,968.67
2018-03-06T02:46:47.706Z,968.72
2018-03-06T02:47:47.873Z,968.69
2018-03-06T02:48:48.047Z,968.69
2018-03-06T02:49:48.226Z,968.66
2018-03-06T02:50:48.396Z,968.62
2018-03-06T02:51:48.575Z,968.63
2018-03-06T02:52:48.743Z,968.58
2018-03-06T02:53:48.921Z,968.61
2018-03-06T02:54:49.093Z,968.64
2018-03-06T02:55:49.266Z,968.64
2018-03-06T02:56:49.434Z,968.64
2018-03-06T02:57:49.614Z,968.66
2018-03-06T02:58:49.795Z,968.64
2018-03-06T02:59:49.961Z,968.61
2018-03-06T03:00:50.140Z,968.60
2018-03-06T03:01:50.359Z,968.61
2018-03-06T03:02:50.503Z,968.59
2018-03-06T03:03:50.658Z,968.55
2018-03-06T03:04:50.829Z,968.58
2018-03-06T03:05:51.004Z,968.57
2018-03-06T03:06:51.161Z,968.58
2018-03-06T03:07:51.338Z,968.58
2018-03-06T03:08:51.504Z,968.58
2018-03-06T03:09:51.680Z,968.54
2018-03-06T03:10:51.855Z,968.54
2018-03-06T03:11:52.036Z,968.54
2018-03-06T03:12:52.197Z,968.51
2018-03-06T03:13:52.375Z,968.51
2018-03-06T03:14:52.549Z,968.47
2018-03-06T03:15:52.732Z,968.53
2018-03-06T03:16:52.905Z,968.47
2018-03-06T03:17:53.080Z,968.50
2018-03-06T03:18:53.249Z,968.51
2018-03-06T03:19:53.424Z,968.49
2018-03-06T03:20:53.591Z,968.51
2018-03-06T03:21:53.775Z,968.48
2018-03-06T03:22:53.944Z,968.53
2018-03-06T03:23:54.121Z,968.50
2018-03-06T03:24:54.292Z,968.53
2018-03-06T03:25:54.461Z,968.51
2018-03-06T03:26:54.632Z,968.48
2018-03-06T03:27:54.804Z,968.49
2018-03-06T03:28:54.975Z,968.47
2018-03-06T03:29:55.154Z,968.45
2018-03-06T03:30:55.327Z,968.43
2018-03-06T03:31:55.508Z,968.45
2018-03-06T03:32:55.682Z,968.46
2018-03-06T03:33:55.852Z,968.43
2018-03-06T03:34:56.277Z,968.45
2018-03-06T03:35:56.197Z,968.45
2018-03-06T03:36:56.371Z,968.47
2018-03-06T03:37:56.541Z,968.42
2018-03-06T03:38:56.718Z,968.41
2018-03-06T03:39:56.892Z,968.44
2018-03-06T03:40:57.064Z,968.39
2018-03-06T03:41:57.234Z,968.38
2018-03-06T03:42:57.433Z,968.40
2018-03-06T03:43:57.587Z,968.38
2018-03-06T03:44:57.760Z,968.31
2018-03-06T03:45:57.933Z,968.35
2018-03-06T03:46:58.103Z,968.31
2018-03-06T03:47:58.272Z,968.36
2018-03-06T03:48:58.450Z,968.35
2018-03-06T03:49:58.625Z,968.33
2018-03-06T03:50:58.794Z,968.34
2018-03-06T03:51:58.971Z,968.29
2018-03-06T03:52:59.137Z,968.34
2018-03-06T03:53:59.319Z,968.32
2018-03-06T03:54:59.490Z,968.32
2018-03-06T03:55:59.659Z,968.32
2018-03-06T03:56:59.835Z,968.29
2018-03-06T03:58:00.013Z,968.34
2018-03-06T03:59:00.195Z,968.30
2018-03-06T04:00:00.356Z,968.33
2018-03-06T04:01:00.527Z,968.28
2018-03-06T04:02:00.698Z,968.30
2018-03-06T04:03:00.877Z,968.29
2018-03-06T04:04:01.046Z,968.34
2018-03-06T04:05:01.232Z,968.28
2018-03-06T04:06:01.391Z,968.30
2018-03-06T04:07:01.562Z,968.30
2018-03-06T04:09:01.906Z,968.27
2018-03-06T04:10:02.077Z,968.26
2018-03-06T04:11:02.248Z,968.21
2018-03-06T04:12:02.424Z,968.20
2018-03-06T04:13:02.602Z,968.25
2018-03-06T04:14:02.776Z,968.26
2018-03-06T04:15:02.949Z,968.17
2018-03-06T04:16:03.132Z,968.20
2018-03-06T04:17:03.298Z,968.22
2018-03-06T04:18:03.476Z,968.22
2018-03-06T04:19:03.651Z,968.20
2018-03-06T04:20:03.820Z,968.22
2018-03-06T04:21:03.992Z,968.20
2018-03-06T04:22:04.177Z,968.18
2018-03-06T04:23:04.337Z,968.20
2018-03-06T04:24:04.512Z,968.20
2018-03-06T04:25:04.671Z,968.21
2018-03-06T04:26:04.847Z,968.19
2018-03-06T04:27:05.021Z,968.14
2018-03-06T04:28:05.451Z,968.14
2018-03-06T04:29:05.364Z,968.23
2018-03-06T04:30:05.537Z,968.18
2018-03-06T04:31:05.720Z,968.19
2018-03-06T04:32:05.889Z,968.21
2018-03-06T04:33:06.063Z,968.17
2018-03-06T04:34:06.247Z,968.18
2018-03-06T04:35:06.416Z,968.15
2018-03-06T04:36:06.596Z,968.18
2018-03-06T04:37:06.761Z,968.16
2018-03-06T04:38:06.932Z,968.17
2018-03-06T04:39:07.113Z,968.15
2018-03-06T04:40:07.281Z,968.16
2018-03-06T04:41:07.459Z,968.11
2018-03-06T04:42:07.631Z,968.14
2018-03-06T04:43:07.808Z,968.10
2018-03-06T04:44:07.980Z,968.13
2018-03-06T04:45:08.159Z,968.09
2018-03-06T04:46:08.337Z,968.06
2018-03-06T04:47:08.511Z,968.09
2018-03-06T04:48:08.692Z,968.14
2018-03-06T04:49:08.865Z,968.10
2018-03-06T04:50:09.037Z,968.10
2018-03-06T04:51:09.221Z,968.13
2018-03-06T04:52:09.386Z,968.12
2018-03-06T04:53:09.554Z,968.09
2018-03-06T04:54:09.734Z,968.11
2018-03-06T04:55:09.897Z,968.05
2018-03-06T04:56:10.066Z,968.07
2018-03-06T04:57:10.244Z,968.05
2018-03-06T04:58:10.414Z,968.04
2018-03-06T04:59:10.589Z,968.03
2018-03-06T05:00:10.767Z,968.02
2018-03-06T05:01:11.188Z,968.03
2018-03-06T05:02:11.107Z,968.03
2018-03-06T05:03:11.282Z,968.01
2018-03-06T05:04:11.502Z,968.00
2018-03-06T05:05:11.627Z,968.03
2018-03-06T05:06:11.799Z,968.00
2018-03-06T05:07:11.972Z,968.00
2018-03-06T05:08:12.148Z,968.04
2018-03-06T05:09:12.318Z,968.03
2018-03-06T05:10:12.488Z,968.05
2018-03-06T05:11:12.667Z,968.03
2018-03-06T05:12:12.841Z,968.05
2018-03-06T05:13:13.013Z,968.05
2018-03-06T05:14:13.189Z,968.02
2018-03-06T05:15:13.359Z,968.02
2018-03-06T05:16:13.534Z,967.99
2018-03-06T05:17:13.706Z,967.98
2018-03-06T05:18:13.879Z,967.99
2018-03-06T05:19:14.063Z,967.96
2018-03-06T05:20:14.214Z,967.96
2018-03-06T05:21:14.391Z,967.99
2018-03-06T05:22:14.562Z,967.95
2018-03-06T05:23:14.728Z,967.96
2018-03-06T05:24:14.902Z,967.98
2018-03-06T05:25:15.077Z,967.98
2018-03-06T05:26:15.251Z,967.95
2018-03-06T05:27:15.427Z,967.98
2018-03-06T05:28:15.597Z,967.99
2018-03-06T05:29:15.773Z,967.99
2018-03-06T05:30:15.942Z,967.98
2018-03-06T05:31:16.117Z,967.96
2018-03-06T05:32:16.289Z,967.96
2018-03-06T05:33:16.465Z,967.93
2018-03-06T05:34:16.644Z,967.93
2018-03-06T05:35:16.820Z,967.93
2018-03-06T05:36:16.988Z,967.97
2018-03-06T05:37:17.165Z,967.93
2018-03-06T05:38:17.333Z,967.93
2018-03-06T05:39:17.508Z,967.93
2018-03-06T05:40:17.687Z,967.95
2018-03-06T05:41:17.854Z,967.93
2018-03-06T05:42:20.068Z,967.94
2018-03-06T05:43:18.237Z,967.94
2018-03-06T05:44:18.416Z,967.93
2018-03-06T05:45:18.585Z,967.90
2018-03-06T05:46:18.756Z,967.91
2018-03-06T05:47:18.936Z,967.93
2018-03-06T05:48:19.109Z,967.95
2018-03-06T05:49:19.283Z,967.93
2018-03-06T05:50:19.448Z,967.94
2018-03-06T05:51:19.619Z,967.96
2018-03-06T05:52:19.797Z,967.93
2018-03-06T05:53:19.973Z,967.88
2018-03-06T05:54:20.140Z,967.91
2018-03-06T05:55:20.317Z,967.86
2018-03-06T05:56:20.493Z,967.88
2018-03-06T05:57:20.668Z,967.84
2018-03-06T05:58:20.838Z,967.86
2018-03-06T05:59:21.011Z,967.86
2018-03-06T06:00:21.189Z,967.87
2018-03-06T06:01:21.365Z,967.90
2018-03-06T06:02:21.541Z,967.88
2018-03-06T06:03:21.696Z,967.91
2018-03-06T06:04:21.872Z,967.90
2018-03-06T06:05:22.047Z,967.86
2018-03-06T06:06:22.215Z,967.88
2018-03-06T06:07:22.388Z,967.89
2018-03-06T06:08:22.567Z,967.84
2018-03-06T06:09:22.742Z,967.88
2018-03-06T06:10:22.901Z,967.85
2018-03-06T06:11:23.073Z,967.86
2018-03-06T06:12:23.243Z,967.87
2018-03-06T06:13:23.411Z,967.88
2018-03-06T06:14:23.582Z,967.88
2018-03-06T06:15:23.757Z,967.86
2018-03-06T06:16:23.931Z,967.84
2018-03-06T06:17:24.116Z,967.89
2018-03-06T06:18:24.264Z,967.86
2018-03-06T06:19:24.439Z,967.85
2018-03-06T06:20:24.614Z,967.90
2018-03-06T06:21:24.787Z,967.86
2018-03-06T06:22:24.958Z,967.86
2018-03-06T06:23:25.146Z,967.91
2018-03-06T06:24:25.409Z,967.94
2018-03-06T06:25:25.478Z,967.91
2018-03-06T06:26:25.655Z,967.97
2018-03-06T06:27:25.826Z,967.97
2018-03-06T06:28:25.996Z,967.98
2018-03-06T06:29:26.164Z,967.97
2018-03-06T06:30:26.342Z,967.98
2018-03-06T06:31:26.523Z,967.92
2018-03-06T06:32:26.733Z,967.96
2018-03-06T06:33:26.867Z,967.97
2018-03-06T06:34:27.043Z,967.97
2018-03-06T06:35:27.217Z,967.99
2018-03-06T06:36:27.393Z,967.98
2018-03-06T06:37:27.813Z,967.96
2018-03-06T06:38:27.730Z,967.97
2018-03-06T06:39:27.906Z,967.95
2018-03-06T06:40:28.073Z,968.00
2018-03-06T06:41:28.243Z,968.03
2018-03-06T06:42:28.420Z,968.01
2018-03-06T06:43:28.595Z,968.02
2018-03-06T06:44:28.767Z,968.02
2018-03-06T06:45:28.945Z,968.01
2018-03-06T06:46:29.117Z,968.02
2018-03-06T06:47:29.289Z,968.03
2018-03-06T06:48:29.465Z,967.99
2018-03-06T06:49:29.642Z,968.02
2018-03-06T06:50:29.816Z,968.03
2018-03-06T06:51:29.988Z,968.02
2018-03-06T06:52:30.162Z,968.03
2018-03-06T06:53:30.334Z,968.04
2018-03-06T06:54:30.508Z,968.04
2018-03-06T06:55:30.685Z,968.06
2018-03-06T06:56:30.867Z,968.07
2018-03-06T06:57:31.039Z,968.07
2018-03-06T06:58:31.213Z,968.08
2018-03-06T06:59:31.387Z,968.07
2018-03-06T07:00:31.803Z,968.08
2018-03-06T07:01:31.740Z,968.04
2018-03-06T07:02:31.904Z,968.08
2018-03-06T07:03:32.081Z,968.07
2018-03-06T07:04:32.248Z,968.11
2018-03-06T07:05:32.430Z,968.08
2018-03-06T07:06:32.603Z,968.09
2018-03-06T07:07:32.768Z,968.12
2018-03-06T07:08:32.943Z,968.07
2018-03-06T07:09:33.124Z,968.06
2018-03-06T07:10:33.304Z,968.07
2018-03-06T07:11:33.471Z,968.05
2018-03-06T07:12:33.646Z,968.05
2018-03-06T07:13:33.820Z,968.01
2018-03-06T07:14:34.026Z,968.03
2018-03-06T07:15:34.152Z,968.07
2018-03-06T07:16:34.326Z,968.08
2018-03-06T07:17:34.501Z,968.05
2018-03-06T07:18:34.674Z,968.07
2018-03-06T07:19:34.848Z,968.00
2018-03-06T07:20:35.020Z,968.05
2018-03-06T07:21:35.195Z,968.08
2018-03-06T07:22:35.374Z,968.02
2018-03-06T07:23:35.551Z,967.99
2018-03-06T07:24:35.716Z,968.00
2018-03-06T07:25:35.890Z,968.01
2018-03-06T07:26:36.065Z,968.02
2018-03-06T07:27:36.248Z,968.01
2018-03-06T07:28:36.415Z,968.01
2018-03-06T07:29:36.591Z,968.07
2018-03-06T07:30:36.759Z,968.04
2018-03-06T07:31:36.933Z,968.03
2018-03-06T07:32:37.112Z,968.08
2018-03-06T07:34:37.445Z,968.06
2018-03-06T07:35:37.619Z,968.11
2018-03-06T07:36:37.782Z,968.08
2018-03-06T07:37:37.957Z,968.07
2018-03-06T07:38:38.132Z,968.13
2018-03-06T07:39:38.304Z,968.07
2018-03-06T07:40:38.478Z,968.09
2018-03-06T07:41:38.653Z,968.11
2018-03-06T07:42:38.830Z,968.04
2018-03-06T07:43:39.044Z,968.05
2018-03-06T07:44:39.168Z,968.05
2018-03-06T07:45:39.349Z,968.01
2018-03-06T07:46:39.516Z,968.04
2018-03-06T07:47:39.692Z,968.00
2018-03-06T07:48:39.861Z,967.99
2018-03-06T07:49:40.049Z,968.02
2018-03-06T07:50:40.200Z,968.00
2018-03-06T07:51:40.380Z,967.99
2018-03-06T07:52:40.562Z,967.97
2018-03-06T07:53:40.737Z,967.96
2018-03-06T07:54:40.901Z,967.97
2018-03-06T07:55:41.076Z,967.99
2018-03-06T07:56:41.247Z,967.97
2018-03-06T07:57:41.426Z,968.00
2018-03-06T07:58:41.601Z,967.97
2018-03-06T07:59:41.772Z,967.98
2018-03-06T08:00:41.949Z,967.98
2018-03-06T08:01:42.124Z,967.96
2018-03-06T08:02:42.309Z,968.00
2018-03-06T08:03:42.470Z,967.96
2018-03-06T08:04:42.677Z,967.96
2018-03-06T08:05:42.819Z,968.02
2018-03-06T08:06:42.993Z,967.97
2018-03-06T08:07:43.995Z,967.99
2018-03-06T08:08:44.000Z,967.92
2018-03-06T08:09:43.507Z,967.95
2018-03-06T08:10:43.666Z,967.93
2018-03-06T08:11:43.867Z,967.94
2018-03-06T08:12:44.004Z,967.90
2018-03-06T08:13:44.179Z,967.92
2018-03-06T08:14:44.357Z,967.87
2018-03-06T08:15:44.531Z,967.90
2018-03-06T08:16:44.703Z,967.92
2018-03-06T08:17:44.872Z,967.95
2018-03-06T08:18:45.048Z,967.94
2018-03-06T08:19:45.219Z,967.91
2018-03-06T08:20:45.388Z,967.88
2018-03-06T08:21:45.567Z,967.86
2018-03-06T08:22:45.734Z,967.89
2018-03-06T08:23:45.912Z,967.88
2018-03-06T08:24:46.084Z,967.90
2018-03-06T08:25:46.259Z,967.92
2018-03-06T08:26:46.433Z,967.89
2018-03-06T08:27:46.607Z,967.91
2018-03-06T08:28:46.783Z,967.89
2018-03-06T08:29:46.969Z,967.89
2018-03-06T08:30:47.135Z,967.83
2018-03-06T08:31:47.303Z,967.93
2018-03-06T08:32:47.489Z,967.89
2018-03-06T08:33:47.661Z,967.89
2018-03-06T08:34:47.840Z,967.89
2018-03-06T08:35:48.020Z,967.93
2018-03-06T08:36:48.191Z,967.86
2018-03-06T08:37:48.367Z,967.88
2018-03-06T08:38:48.537Z,967.83
2018-03-06T08:39:48.711Z,967.86
2018-03-06T08:40:48.895Z,967.89
2018-03-06T08:41:49.074Z,967.89
2018-03-06T08:42:49.244Z,967.83
2018-03-06T08:43:49.418Z,967.85
2018-03-06T08:44:49.656Z,967.83
2018-03-06T08:45:49.774Z,967.76
2018-03-06T08:46:49.941Z,967.78
2018-03-06T08:47:50.113Z,967.77
2018-03-06T08:48:50.282Z,967.76
2018-03-06T08:49:50.469Z,967.73
2018-03-06T08:50:50.629Z,967.74
2018-03-06T08:51:50.887Z,967.74
2018-03-06T08:52:50.966Z,967.75
2018-03-06T08:53:51.142Z,967.72
2018-03-06T08:54:51.317Z,967.74
2018-03-06T08:55:51.575Z,967.72
2018-03-06T08:56:51.667Z,967.74
2018-03-06T08:57:51.840Z,967.71
2018-03-06T08:58:52.031Z,967.74
2018-03-06T08:59:52.208Z,967.69
2018-03-06T09:00:52.379Z,967.75
2018-03-06T09:01:52.557Z,967.69
2018-03-06T09:02:52.729Z,967.71
2018-03-06T09:03:52.909Z,967.74
2018-03-06T09:04:53.083Z,967.72
2018-03-06T09:05:53.262Z,967.72
2018-03-06T09:06:53.430Z,967.73
2018-03-06T09:07:53.609Z,967.70
2018-03-06T09:08:53.783Z,967.68
2018-03-06T09:09:53.964Z,967.71
2018-03-06T09:10:54.131Z,967.66
2018-03-06T09:11:54.311Z,967.65
2018-03-06T09:12:54.481Z,967.64
2018-03-06T09:13:54.662Z,967.65
2018-03-06T09:14:54.848Z,967.67
2018-03-06T09:15:55.014Z,967.69
2018-03-06T09:16:55.191Z,967.67
2018-03-06T09:17:55.375Z,967.67
2018-03-06T09:18:55.545Z,967.68
2018-03-06T09:19:55.737Z,967.68
2018-03-06T09:20:55.910Z,967.67
2018-03-06T09:21:56.081Z,967.65
2018-03-06T09:22:56.226Z,967.70
2018-03-06T09:23:56.400Z,967.72
2018-03-06T09:24:56.555Z,967.70
2018-03-06T09:25:56.730Z,967.73
2018-03-06T09:26:57.152Z,967.66
2018-03-06T09:27:57.085Z,967.67
2018-03-06T09:28:57.250Z,967.67
2018-03-06T09:29:57.665Z,967.71
2018-03-06T09:30:57.592Z,967.70
2018-03-06T09:31:57.794Z,967.68
2018-03-06T09:32:57.944Z,967.68
2018-03-06T09:33:58.079Z,967.71
2018-03-06T09:34:58.260Z,967.69
2018-03-06T09:35:58.435Z,967.70
2018-03-06T09:36:58.629Z,967.75
2018-03-06T09:37:58.775Z,967.74
2018-03-06T09:38:58.953Z,967.74
2018-03-06T09:39:59.374Z,967.72
2018-03-06T09:40:59.287Z,967.73
2018-03-06T09:41:59.477Z,967.75
2018-03-06T09:42:59.649Z,967.73
2018-03-06T09:43:59.828Z,967.74
2018-03-06T09:44:59.999Z,967.73
2018-03-06T09:46:00.193Z,967.73
2018-03-06T09:47:00.365Z,967.71
2018-03-06T09:48:00.513Z,967.71
2018-03-06T09:49:00.679Z,967.73
2018-03-06T09:50:00.897Z,967.74
2018-03-06T09:51:01.088Z,967.76
2018-03-06T09:52:01.245Z,967.75
2018-03-06T09:53:01.646Z,967.75
2018-03-06T09:54:01.573Z,967.78
2018-03-06T09:55:01.774Z,967.73
2018-03-06T09:56:01.924Z,967.74
2018-03-06T09:57:02.091Z,967.74
2018-03-06T09:58:02.268Z,967.71
2018-03-06T09:59:02.440Z,967.70
2018-03-06T10:00:02.607Z,967.70
2018-03-06T10:01:02.803Z,967.69
2018-03-06T10:02:02.985Z,967.69
2018-03-06T10:03:03.154Z,967.69
2018-03-06T10:04:03.323Z,967.64
2018-03-06T10:05:03.498Z,967.68
2018-03-06T10:06:03.658Z,967.64
2018-03-06T10:07:03.845Z,967.67
2018-03-06T10:08:04.012Z,967.65
2018-03-06T10:09:04.209Z,967.64
2018-03-06T10:10:04.354Z,967.62
2018-03-06T10:11:04.521Z,967.62
2018-03-06T10:12:04.694Z,967.61
2018-03-06T10:13:04.879Z,967.60
2018-03-06T10:14:05.055Z,967.56
2018-03-06T10:15:05.234Z,967.60
2018-03-06T10:16:05.414Z,967.56
2018-03-06T10:17:05.598Z,967.58
2018-03-06T10:18:05.779Z,967.58
2018-03-06T10:19:05.961Z,967.60
2018-03-06T10:20:06.378Z,967.56
2018-03-06T10:21:06.318Z,967.59
2018-03-06T10:22:06.478Z,967.60
2018-03-06T10:23:06.685Z,967.58
2018-03-06T10:24:06.858Z,967.57
2018-03-06T10:25:07.039Z,967.56
2018-03-06T10:26:07.227Z,967.57
2018-03-06T10:27:07.395Z,967.57
2018-03-06T10:28:07.622Z,967.56
2018-03-06T10:29:07.752Z,967.56
2018-03-06T10:30:07.943Z,967.53
2018-03-06T10:31:08.116Z,967.53
2018-03-06T10:32:08.299Z,967.52
2018-03-06T10:33:08.484Z,967.47
2018-03-06T10:34:08.653Z,967.47
2018-03-06T10:35:08.842Z,967.49
2018-03-06T10:36:09.012Z,967.50
2018-03-06T10:37:09.196Z,967.51
2018-03-06T10:38:09.369Z,967.47
2018-03-06T10:39:09.560Z,967.48
2018-03-06T10:41:09.906Z,967.47
2018-03-06T10:42:10.085Z,967.49
2018-03-06T10:43:10.263Z,967.46
2018-03-06T10:44:10.442Z,967.48
2018-03-06T10:45:10.622Z,967.47
2018-03-06T10:46:10.792Z,967.47
2018-03-06T10:47:10.989Z,967.47
2018-03-06T10:48:11.169Z,967.44
2018-03-06T10:49:11.365Z,967.40
2018-03-06T10:50:11.535Z,967.39
2018-03-06T10:51:11.724Z,967.37
2018-03-06T10:52:11.902Z,967.37
2018-03-06T10:53:12.110Z,967.33
2018-03-06T10:54:12.272Z,967.34
2018-03-06T10:55:12.447Z,967.30
2018-03-06T10:56:12.641Z,967.30
2018-03-06T10:57:12.801Z,967.28
2018-03-06T10:58:12.989Z,967.32
2018-03-06T10:59:13.160Z,967.28
2018-03-06T11:00:13.338Z,967.25
2018-03-06T11:01:13.540Z,967.28
2018-03-06T11:02:13.708Z,967.30
2018-03-06T11:03:13.883Z,967.27
2018-03-06T11:04:14.068Z,967.29
2018-03-06T11:05:14.249Z,967.34
2018-03-06T11:06:14.430Z,967.31
2018-03-06T11:07:14.610Z,967.29
2018-03-06T11:08:14.832Z,967.28
2018-03-06T11:09:14.961Z,967.30
2018-03-06T11:10:15.156Z,967.25
2018-03-06T11:11:15.338Z,967.24
2018-03-06T11:12:15.518Z,967.25
2018-03-06T11:13:15.710Z,967.23
2018-03-06T11:14:15.948Z,967.26
2018-03-06T11:15:16.058Z,967.20
2018-03-06T11:16:16.235Z,967.19
2018-03-06T11:17:16.423Z,967.18
2018-03-06T11:18:16.606Z,967.18
2018-03-06T11:19:16.785Z,967.13
2018-03-06T11:20:16.969Z,967.15
2018-03-06T11:21:17.404Z,967.11
2018-03-06T11:22:17.349Z,967.13
2018-03-06T11:23:17.518Z,967.08
2018-03-06T11:24:17.700Z,967.10
2018-03-06T11:25:17.894Z,967.06
2018-03-06T11:26:18.065Z,967.01
2018-03-06T11:27:18.250Z,967.02
2018-03-06T11:28:18.434Z,967.01
2018-03-06T11:29:18.610Z,966.98
2018-03-06T11:30:18.796Z,966.98
2018-03-06T11:31:18.980Z,967.00
2018-03-06T11:32:19.165Z,966.99
2018-03-06T11:33:19.346Z,966.98
2018-03-06T11:34:19.526Z,966.98
2018-03-06T11:35:19.707Z,966.96
2018-03-06T11:36:19.887Z,966.92
2018-03-06T11:37:20.071Z,966.92
2018-03-06T11:38:20.260Z,966.90
2018-03-06T11:39:20.445Z,966.91
2018-03-06T11:40:20.616Z,966.86
2018-03-06T11:41:20.800Z,966.85
2018-03-06T11:42:21.116Z,966.86
2018-03-06T11:43:21.130Z,966.81
2018-03-06T11:44:21.310Z,966.83
2018-03-06T11:45:21.492Z,966.84
2018-03-06T11:46:21.692Z,966.81
2018-03-06T11:47:21.856Z,966.79
2018-03-06T11:48:22.038Z,966.82
2018-03-06T11:49:22.224Z,966.80
2018-03-06T11:50:22.404Z,966.74
2018-03-06T11:51:22.584Z,966.73
2018-03-06T11:52:23.719Z,966.74
2018-03-06T11:53:23.016Z,966.68
2018-03-06T11:54:23.192Z,966.67
2018-03-06T11:56:23.546Z,966.72
2018-03-06T11:57:23.729Z,966.70
2018-03-06T11:58:23.911Z,966.68
2018-03-06T11:59:24.103Z,966.69
2018-03-06T12:00:24.281Z,966.64
2018-03-06T12:01:24.461Z,966.63
2018-03-06T12:02:24.649Z,966.65
2018-03-06T12:03:24.820Z,966.64
2018-03-06T12:04:25.009Z,966.63
2018-03-06T12:05:25.184Z,966.66
2018-03-06T12:06:25.372Z,966.66
2018-03-06T12:07:25.556Z,966.66
2018-03-06T12:08:25.739Z,966.64
2018-03-06T12:09:25.916Z,966.62
2018-03-06T12:10:26.104Z,966.62
2018-03-06T12:11:26.289Z,966.63
2018-03-06T12:12:26.462Z,966.62
2018-03-06T12:13:26.647Z,966.62
2018-03-06T12:14:26.843Z,966.61
2018-03-06T12:15:27.014Z,966.67
2018-03-06T12:16:27.186Z,966.64
2018-03-06T12:17:27.373Z,966.64
2018-03-06T12:18:27.546Z,966.66
2018-03-06T12:19:27.974Z,966.58
2018-03-06T12:20:27.911Z,966.55
2018-03-06T12:21:28.100Z,966.61
2018-03-06T12:22:28.264Z,966.58
2018-03-06T12:23:28.442Z,966.59
2018-03-06T12:24:28.632Z,966.58
2018-03-06T12:25:28.813Z,966.60
2018-03-06T12:26:28.984Z,966.58
2018-03-06T12:27:29.178Z,966.57
2018-03-06T12:28:29.346Z,966.60
2018-03-06T12:29:29.522Z,966.56
2018-03-06T12:30:29.702Z,966.58
2018-03-06T12:31:29.883Z,966.60
2018-03-06T12:32:30.069Z,966.58
2018-03-06T12:33:30.245Z,966.54
2018-03-06T12:34:30.440Z,966.57